Time;durP1;ratioP1;P1;durP2;ratioP2;P2;SDS_P1;SDS_P2;PMS_P1;PMS_P2;Temp;Humidity;BMP_temperature;BMP_pressure;BME280_temperature;BME280_humidity;BME280_pressure;Samples;Min_cycle;Max_cycle;Signal;HPM_P1;HPM_P2
2023/05/21 00:01:41;;;;;;;11.02;6.43;;;;;;;;;;5040112;28;20040;-75
2023/05/21 00:04:06;;;;;;;9.50;6.30;;;;;;;;;;5040516;28;20962;-76
2023/05/21 00:06:35;;;;;;;9.23;6.18;;;;;;;;;;5015825;28;20041;-76
2023/05/21 00:09:04;;;;;;;10.90;6.35;;;;;;;;;;5019178;28;20049;-77
2023/05/21 00:11:30;;;;;;;8.50;6.15;;;;;;;;;;4992420;28;20034;-76
2023/05/21 00:13:55;;;;;;;13.10;6.72;;;;;;;;;;5020538;28;20519;-75
2023/05/21 00:16:21;;;;;;;15.23;6.70;;;;;;;;;;5018440;28;20077;-75
2023/05/21 00:18:48;;;;;;;9.40;6.60;;;;;;;;;;5019837;28;20041;-74
2023/05/21 00:21:16;;;;;;;12.23;6.80;;;;;;;;;;4989318;28;20038;-74
2023/05/21 00:23:42;;;;;;;11.57;7.10;;;;;;;;;;4988058;28;20057;-74
2023/05/21 00:26:07;;;;;;;9.85;7.20;;;;;;;;;;5020926;28;20034;-74
2023/05/21 00:28:32;;;;;;;12.52;7.20;;;;;;;;;;4988060;28;20169;-74
2023/05/21 00:31:00;;;;;;;13.13;7.65;;;;;;;;;;4988471;28;20089;-75
2023/05/21 00:33:28;;;;;;;12.90;7.65;;;;;;;;;;4988738;28;20096;-74
2023/05/21 00:35:53;;;;;;;13.48;7.47;;;;;;;;;;4995116;28;20038;-74
2023/05/21 00:38:19;;;;;;;12.77;7.55;;;;;;;;;;5012680;28;20593;-74
2023/05/21 00:40:47;;;;;;;12.82;7.63;;;;;;;;;;4991899;28;20072;-73
2023/05/21 00:43:13;;;;;;;13.02;7.95;;;;;;;;;;4981604;28;20038;-74
2023/05/21 00:45:45;;;;;;;14.88;7.75;;;;;;;;;;5020363;28;20475;-75
2023/05/21 00:48:11;;;;;;;14.82;8.00;;;;;;;;;;4990044;28;20046;-73
2023/05/21 00:50:38;;;;;;;14.38;7.93;;;;;;;;;;4989265;28;20033;-74
2023/05/21 00:53:08;;;;;;;12.88;7.93;;;;;;;;;;4988799;28;20111;-74
2023/05/21 00:55:33;;;;;;;11.20;8.32;;;;;;;;;;4990483;28;20033;-73
2023/05/21 00:57:59;;;;;;;13.88;8.38;;;;;;;;;;4987258;28;20049;-75
2023/05/21 01:00:25;;;;;;;12.43;8.85;;;;;;;;;;4979748;28;20038;-73
2023/05/21 01:02:50;;;;;;;10.90;8.20;;;;;;;;;;5020282;28;20026;-73
2023/05/21 01:05:16;;;;;;;10.98;8.30;;;;;;;;;;5019352;28;20897;-73
2023/05/21 01:07:41;;;;;;;13.65;8.77;;;;;;;;;;4990155;28;20388;-74
2023/05/21 01:10:07;;;;;;;16.52;8.15;;;;;;;;;;4993401;28;20092;-74
2023/05/21 01:12:33;;;;;;;12.85;7.95;;;;;;;;;;4994799;28;20034;-75
2023/05/21 01:14:59;;;;;;;13.40;8.20;;;;;;;;;;4987457;28;20040;-73
2023/05/21 01:17:25;;;;;;;12.27;8.32;;;;;;;;;;4986053;28;20041;-74
2023/05/21 01:19:51;;;;;;;15.15;8.25;;;;;;;;;;4987257;28;20092;-74
2023/05/21 01:22:19;;;;;;;14.38;8.52;;;;;;;;;;4988337;28;20411;-73
2023/05/21 01:24:46;;;;;;;13.55;8.27;;;;;;;;;;5007685;28;20120;-74
2023/05/21 01:27:14;;;;;;;13.65;8.25;;;;;;;;;;5040134;28;20453;-73
2023/05/21 01:29:39;;;;;;;12.10;7.95;;;;;;;;;;5008610;28;20513;-73
2023/05/21 01:32:13;;;;;;;16.30;8.85;;;;;;;;;;5006676;28;20056;-74
2023/05/21 01:34:49;;;;;;;12.93;7.80;;;;;;;;;;5005945;28;20065;-73
2023/05/21 01:37:25;;;;;;;11.45;7.40;;;;;;;;;;5008443;28;20888;-73
2023/05/21 01:39:53;;;;;;;13.52;8.13;;;;;;;;;;5009209;28;20112;-73
2023/05/21 01:42:21;;;;;;;13.38;8.18;;;;;;;;;;5038780;28;20053;-73
2023/05/21 01:44:47;;;;;;;11.52;7.50;;;;;;;;;;5023051;28;20048;-73
2023/05/21 01:47:13;;;;;;;13.13;7.90;;;;;;;;;;5007551;28;20910;-73
2023/05/21 01:49:43;;;;;;;9.73;7.68;;;;;;;;;;5011689;28;20123;-73
2023/05/21 01:52:11;;;;;;;11.77;7.38;;;;;;;;;;5009919;28;20084;-75
2023/05/21 01:54:37;;;;;;;13.90;7.93;;;;;;;;;;5011058;28;20623;-74
2023/05/21 01:57:02;;;;;;;12.38;7.25;;;;;;;;;;5012228;28;20044;-74
2023/05/21 01:59:28;;;;;;;10.27;7.75;;;;;;;;;;5042464;28;20087;-74
2023/05/21 02:01:54;;;;;;;12.65;7.80;;;;;;;;;;5011623;28;20044;-74
2023/05/21 02:04:24;;;;;;;11.65;7.05;;;;;;;;;;5041717;28;20440;-74
2023/05/21 02:06:49;;;;;;;11.88;7.22;;;;;;;;;;5010624;28;20759;-74
2023/05/21 02:09:14;;;;;;;13.13;7.72;;;;;;;;;;5029435;28;20091;-74
2023/05/21 02:11:40;;;;;;;12.18;7.85;;;;;;;;;;5009917;28;20064;-74
2023/05/21 02:14:09;;;;;;;10.85;7.90;;;;;;;;;;5040520;28;20112;-74
2023/05/21 02:16:34;;;;;;;12.00;7.55;;;;;;;;;;5021253;28;20422;-74
2023/05/21 02:19:03;;;;;;;11.75;7.70;;;;;;;;;;4991289;28;20088;-74
2023/05/21 02:21:28;;;;;;;12.68;7.57;;;;;;;;;;4997760;28;20034;-74
2023/05/21 02:23:54;;;;;;;13.80;7.80;;;;;;;;;;5021239;28;20116;-74
2023/05/21 02:26:21;;;;;;;10.82;7.32;;;;;;;;;;5021169;28;20041;-74
2023/05/21 02:28:46;;;;;;;10.07;7.72;;;;;;;;;;4992710;28;20495;-75
2023/05/21 02:31:12;;;;;;;10.90;7.30;;;;;;;;;;4991076;28;20041;-76
2023/05/21 02:33:38;;;;;;;12.77;7.10;;;;;;;;;;4991410;28;20084;-74
2023/05/21 02:36:04;;;;;;;9.43;7.22;;;;;;;;;;4989590;28;20518;-74
2023/05/21 02:38:31;;;;;;;13.27;6.97;;;;;;;;;;4989913;28;20084;-74
2023/05/21 02:40:56;;;;;;;10.25;7.38;;;;;;;;;;4993038;28;22137;-75
2023/05/21 02:43:22;;;;;;;12.38;7.05;;;;;;;;;;4992320;28;20041;-73
2023/05/21 02:45:47;;;;;;;14.55;7.68;;;;;;;;;;4994681;28;20029;-74
2023/05/21 02:48:15;;;;;;;12.73;7.70;;;;;;;;;;5006997;28;20045;-74
2023/05/21 02:50:40;;;;;;;13.40;7.57;;;;;;;;;;4991897;28;20171;-74
2023/05/21 02:53:10;;;;;;;12.63;7.93;;;;;;;;;;4991405;28;20037;-74
2023/05/21 02:55:35;;;;;;;11.68;7.13;;;;;;;;;;5020854;28;20148;-75
2023/05/21 02:58:01;;;;;;;10.75;8.25;;;;;;;;;;5022084;28;20045;-74
2023/05/21 03:00:28;;;;;;;9.23;7.05;;;;;;;;;;4990424;28;20041;-73
2023/05/21 03:02:54;;;;;;;9.55;7.00;;;;;;;;;;4991677;28;20040;-72
2023/05/21 03:05:19;;;;;;;11.80;7.47;;;;;;;;;;4981041;28;20088;-73
2023/05/21 03:07:45;;;;;;;13.13;8.20;;;;;;;;;;4990079;28;20056;-73
2023/05/21 03:10:10;;;;;;;12.57;8.15;;;;;;;;;;4993208;28;20091;-73
2023/05/21 03:12:35;;;;;;;9.95;7.78;;;;;;;;;;5001326;28;20477;-74
2023/05/21 03:15:03;;;;;;;11.73;7.18;;;;;;;;;;4999628;28;20494;-73
2023/05/21 03:17:28;;;;;;;12.85;7.88;;;;;;;;;;4990798;28;20416;-72
2023/05/21 03:19:54;;;;;;;11.00;7.30;;;;;;;;;;4991463;28;20034;-73
2023/05/21 03:22:20;;;;;;;10.05;7.65;;;;;;;;;;4991645;28;20533;-73
2023/05/21 03:24:45;;;;;;;11.57;7.75;;;;;;;;;;4991112;28;20080;-73
2023/05/21 03:27:11;;;;;;;10.27;7.70;;;;;;;;;;4991099;28;20091;-74
2023/05/21 03:29:38;;;;;;;9.27;7.60;;;;;;;;;;4993584;28;20267;-73
2023/05/21 03:32:04;;;;;;;10.27;7.38;;;;;;;;;;4992948;28;20030;-74
2023/05/21 03:34:29;;;;;;;10.50;7.35;;;;;;;;;;4988291;28;20042;-74
2023/05/21 03:36:55;;;;;;;13.40;7.60;;;;;;;;;;5018684;28;20081;-74
2023/05/21 03:39:20;;;;;;;9.88;7.30;;;;;;;;;;5004438;28;20048;-74
2023/05/21 03:41:45;;;;;;;9.98;8.05;;;;;;;;;;4991172;28;20034;-73
2023/05/21 03:44:10;;;;;;;13.30;7.38;;;;;;;;;;4997552;28;20118;-73
2023/05/21 03:46:36;;;;;;;11.80;7.38;;;;;;;;;;4992438;28;20038;-72
2023/05/21 03:49:01;;;;;;;9.35;7.35;;;;;;;;;;4998742;28;20487;-72
2023/05/21 03:51:26;;;;;;;8.98;7.10;;;;;;;;;;5000033;28;20037;-72
2023/05/21 03:53:52;;;;;;;9.07;7.18;;;;;;;;;;4999132;28;20045;-73
2023/05/21 03:56:17;;;;;;;9.23;7.35;;;;;;;;;;4989853;28;20049;-72
2023/05/21 03:58:45;;;;;;;9.35;7.38;;;;;;;;;;4992482;28;20037;-73
2023/05/21 04:01:11;;;;;;;10.18;7.25;;;;;;;;;;4978506;28;20034;-74
2023/05/21 04:03:36;;;;;;;9.25;7.53;;;;;;;;;;5011648;28;20394;-72
2023/05/21 04:06:02;;;;;;;9.75;7.32;;;;;;;;;;4977468;28;20482;-73
2023/05/21 04:08:27;;;;;;;10.68;7.90;;;;;;;;;;5019153;28;20045;-73
2023/05/21 04:10:55;;;;;;;10.75;7.65;;;;;;;;;;5020667;28;20045;-74
2023/05/21 04:13:20;;;;;;;10.18;7.53;;;;;;;;;;5005534;28;20038;-72
2023/05/21 04:15:46;;;;;;;10.30;7.00;;;;;;;;;;4988787;28;20033;-73
2023/05/21 04:18:12;;;;;;;10.55;7.32;;;;;;;;;;5008306;28;20128;-73
2023/05/21 04:20:37;;;;;;;9.52;6.55;;;;;;;;;;5042181;28;20040;-72
2023/05/21 04:23:05;;;;;;;11.80;7.05;;;;;;;;;;5009445;28;20071;-73
2023/05/21 04:25:30;;;;;;;11.23;7.38;;;;;;;;;;5007730;28;20786;-72
2023/05/21 04:27:56;;;;;;;9.43;7.25;;;;;;;;;;5034051;28;20167;-72
2023/05/21 04:30:22;;;;;;;10.90;6.93;;;;;;;;;;5015595;28;20757;-73
2023/05/21 04:32:48;;;;;;;9.40;6.78;;;;;;;;;;5039943;28;20040;-72
2023/05/21 04:35:14;;;;;;;9.32;7.18;;;;;;;;;;5007245;28;20034;-73
2023/05/21 04:37:40;;;;;;;8.20;6.93;;;;;;;;;;5005572;28;20157;-73
2023/05/21 04:40:09;;;;;;;9.00;6.93;;;;;;;;;;5007439;28;20531;-72
2023/05/21 04:42:37;;;;;;;11.45;7.10;;;;;;;;;;5006906;28;20171;-74
2023/05/21 04:45:03;;;;;;;8.43;6.68;;;;;;;;;;5008475;28;20033;-74
2023/05/21 04:47:29;;;;;;;7.70;6.20;;;;;;;;;;5043562;28;20098;-72
2023/05/21 04:49:54;;;;;;;9.32;6.43;;;;;;;;;;5010821;28;20084;-74
2023/05/21 04:52:19;;;;;;;9.02;6.55;;;;;;;;;;5042941;28;20040;-72
2023/05/21 04:54:46;;;;;;;7.97;6.57;;;;;;;;;;5014109;28;20646;-71
2023/05/21 04:57:12;;;;;;;9.40;6.45;;;;;;;;;;5012015;28;20048;-71
2023/05/21 04:59:37;;;;;;;8.20;6.55;;;;;;;;;;5009850;28;20041;-71
2023/05/21 05:02:02;;;;;;;9.27;6.60;;;;;;;;;;5040979;28;20091;-73
2023/05/21 05:04:28;;;;;;;8.82;6.50;;;;;;;;;;5040616;28;20126;-72
2023/05/21 05:06:53;;;;;;;10.65;6.75;;;;;;;;;;5010539;28;20033;-72
2023/05/21 05:09:20;;;;;;;9.15;6.65;;;;;;;;;;5011662;28;20875;-72
2023/05/21 05:11:45;;;;;;;9.05;6.45;;;;;;;;;;5017743;28;20045;-72
2023/05/21 05:14:10;;;;;;;8.45;6.38;;;;;;;;;;5047204;28;20037;-72
2023/05/21 05:16:36;;;;;;;7.57;6.38;;;;;;;;;;5011144;28;20041;-75
2023/05/21 05:19:03;;;;;;;8.32;6.38;;;;;;;;;;5022276;28;20185;-76
2023/05/21 05:21:29;;;;;;;9.50;6.05;;;;;;;;;;5019309;28;20627;-77
2023/05/21 05:23:54;;;;;;;9.15;6.75;;;;;;;;;;5022331;28;20048;-76
2023/05/21 05:26:20;;;;;;;8.68;6.22;;;;;;;;;;5044866;28;20052;-75
2023/05/21 05:28:45;;;;;;;8.85;6.63;;;;;;;;;;5011478;28;20277;-75
2023/05/21 05:31:11;;;;;;;9.75;5.97;;;;;;;;;;5010369;28;20123;-77
2023/05/21 05:33:40;;;;;;;7.95;5.95;;;;;;;;;;5010636;28;20409;-75
2023/05/21 05:36:05;;;;;;;9.73;6.18;;;;;;;;;;5015362;28;20041;-74
2023/05/21 05:38:30;;;;;;;10.23;6.10;;;;;;;;;;5051780;28;20032;-76
2023/05/21 05:40:56;;;;;;;7.93;5.80;;;;;;;;;;5015926;28;20030;-75
2023/05/21 05:43:23;;;;;;;10.30;6.10;;;;;;;;;;5050765;28;20033;-76
2023/05/21 05:45:49;;;;;;;10.13;6.22;;;;;;;;;;5012396;28;20043;-76
2023/05/21 05:48:15;;;;;;;11.52;5.68;;;;;;;;;;5054415;28;20283;-75
2023/05/21 05:50:44;;;;;;;9.43;5.80;;;;;;;;;;5056086;28;20033;-76
2023/05/21 05:53:12;;;;;;;9.63;6.10;;;;;;;;;;5029861;28;20414;-75
2023/05/21 05:55:37;;;;;;;8.88;5.93;;;;;;;;;;5019149;28;20056;-76
2023/05/21 05:58:04;;;;;;;7.38;5.80;;;;;;;;;;5013011;28;20034;-76
2023/05/21 06:00:31;;;;;;;9.15;6.05;;;;;;;;;;5032431;28;20311;-76
2023/05/21 06:02:57;;;;;;;8.02;6.13;;;;;;;;;;5011036;28;20041;-77
2023/05/21 06:05:24;;;;;;;7.70;5.90;;;;;;;;;;5009359;28;20042;-77
2023/05/21 06:07:49;;;;;;;6.85;5.72;;;;;;;;;;5017036;28;20060;-76
2023/05/21 06:10:15;;;;;;;11.55;6.50;;;;;;;;;;5022341;28;20124;-76
2023/05/21 06:12:45;;;;;;;9.98;5.80;;;;;;;;;;5015098;28;20064;-76
2023/05/21 06:15:10;;;;;;;11.57;6.40;;;;;;;;;;5029450;28;20056;-75
2023/05/21 06:17:36;;;;;;;8.75;6.13;;;;;;;;;;5033391;28;20041;-76
2023/05/21 06:20:01;;;;;;;10.25;5.85;;;;;;;;;;5045955;28;20401;-76
2023/05/21 06:22:27;;;;;;;11.13;6.03;;;;;;;;;;5026133;28;20061;-77
2023/05/21 06:24:52;;;;;;;8.45;5.65;;;;;;;;;;5047614;28;20041;-77
2023/05/21 06:27:17;;;;;;;8.45;5.15;;;;;;;;;;5051640;28;20371;-76
2023/05/21 06:29:45;;;;;;;10.90;5.63;;;;;;;;;;5039216;28;20490;-76
2023/05/21 06:32:12;;;;;;;11.52;5.57;;;;;;;;;;5012725;28;20036;-77
2023/05/21 06:34:40;;;;;;;10.50;5.65;;;;;;;;;;5012494;28;20126;-77
2023/05/21 06:37:05;;;;;;;10.50;4.97;;;;;;;;;;5015053;28;20094;-76
2023/05/21 06:39:31;;;;;;;12.10;5.50;;;;;;;;;;5041458;28;20064;-76
2023/05/21 06:41:56;;;;;;;10.77;5.20;;;;;;;;;;5009561;28;22516;-72
2023/05/21 06:44:23;;;;;;;10.35;5.10;;;;;;;;;;5007897;28;20029;-77
2023/05/21 06:46:48;;;;;;;11.35;4.97;;;;;;;;;;5005697;28;20099;-77
2023/05/21 06:49:14;;;;;;;11.65;5.00;;;;;;;;;;5027412;28;20093;-76
2023/05/21 06:51:39;;;;;;;10.45;5.22;;;;;;;;;;5008186;28;20044;-74
2023/05/21 06:54:04;;;;;;;8.23;4.82;;;;;;;;;;5006671;28;20045;-76
2023/05/21 06:56:32;;;;;;;10.73;5.13;;;;;;;;;;5006225;28;20045;-74
2023/05/21 06:58:58;;;;;;;10.88;5.30;;;;;;;;;;5007556;28;20099;-74
2023/05/21 07:01:23;;;;;;;8.90;5.00;;;;;;;;;;5009583;28;20365;-74
2023/05/21 07:03:48;;;;;;;11.10;4.80;;;;;;;;;;5005833;28;22939;-74
2023/05/21 07:06:14;;;;;;;9.65;4.78;;;;;;;;;;5035836;28;20690;-73
2023/05/21 07:08:43;;;;;;;10.07;4.80;;;;;;;;;;5006257;28;20044;-74
2023/05/21 07:11:09;;;;;;;8.38;4.65;;;;;;;;;;5005613;28;20037;-74
2023/05/21 07:13:34;;;;;;;8.13;4.35;;;;;;;;;;5006094;28;20044;-73
2023/05/21 07:16:00;;;;;;;11.02;4.68;;;;;;;;;;5036881;28;20632;-74
2023/05/21 07:18:25;;;;;;;10.40;4.53;;;;;;;;;;5024459;28;20091;-74
2023/05/21 07:20:50;;;;;;;10.45;4.68;;;;;;;;;;5004979;28;20160;-74
2023/05/21 07:23:18;;;;;;;10.80;4.15;;;;;;;;;;5008096;28;20798;-73
2023/05/21 07:25:43;;;;;;;12.25;4.80;;;;;;;;;;5005634;28;20022;-73
2023/05/21 07:28:09;;;;;;;9.70;4.47;;;;;;;;;;5007184;28;20033;-73
2023/05/21 07:30:36;;;;;;;9.90;4.38;;;;;;;;;;5007016;28;20033;-74
2023/05/21 07:33:01;;;;;;;7.75;4.75;;;;;;;;;;5005891;28;20052;-72
2023/05/21 07:35:27;;;;;;;9.10;4.25;;;;;;;;;;5006975;28;20527;-72
2023/05/21 07:37:53;;;;;;;9.82;4.82;;;;;;;;;;5005810;28;20809;-72
2023/05/21 07:40:18;;;;;;;10.25;4.80;;;;;;;;;;5028096;28;20034;-73
2023/05/21 07:42:43;;;;;;;8.85;4.43;;;;;;;;;;5006332;28;22243;-73
2023/05/21 07:45:09;;;;;;;11.70;5.65;;;;;;;;;;5018870;28;20125;-73
2023/05/21 07:47:34;;;;;;;8.23;4.75;;;;;;;;;;5002329;28;20049;-73
2023/05/21 07:49:59;;;;;;;13.02;5.18;;;;;;;;;;5040047;28;20091;-72
2023/05/21 07:52:27;;;;;;;8.48;4.95;;;;;;;;;;5035835;28;20075;-74
2023/05/21 07:54:52;;;;;;;8.93;4.93;;;;;;;;;;5010691;28;20041;-74
2023/05/21 07:57:17;;;;;;;10.00;4.90;;;;;;;;;;5011477;28;20548;-74
2023/05/21 07:59:43;;;;;;;12.27;4.80;;;;;;;;;;5007623;28;20076;-74
2023/05/21 08:02:08;;;;;;;6.22;4.25;;;;;;;;;;5007843;28;20068;-72
2023/05/21 08:04:33;;;;;;;10.23;5.30;;;;;;;;;;5006053;28;20044;-72
2023/05/21 08:07:10;;;;;;;8.30;4.90;;;;;;;;;;4977098;28;20483;-67
2023/05/21 08:09:37;;;;;;;9.15;4.88;;;;;;;;;;4975570;28;20042;-68
2023/05/21 08:12:03;;;;;;;10.45;5.60;;;;;;;;;;4976420;28;20034;-68
2023/05/21 08:14:28;;;;;;;10.27;5.40;;;;;;;;;;4975829;28;20027;-68
2023/05/21 08:16:53;;;;;;;9.57;5.28;;;;;;;;;;4976187;28;20507;-68
2023/05/21 08:19:21;;;;;;;10.70;5.28;;;;;;;;;;4975575;28;20027;-68
2023/05/21 08:21:46;;;;;;;9.68;5.20;;;;;;;;;;4976475;28;20072;-69
2023/05/21 08:24:11;;;;;;;8.20;5.20;;;;;;;;;;4958307;28;20507;-69
2023/05/21 08:26:37;;;;;;;13.10;4.88;;;;;;;;;;4976192;28;20034;-68
2023/05/21 08:29:02;;;;;;;9.23;4.85;;;;;;;;;;4976390;28;20517;-69
2023/05/21 08:31:27;;;;;;;11.70;5.57;;;;;;;;;;4975322;28;20022;-69
2023/05/21 08:33:55;;;;;;;7.40;5.10;;;;;;;;;;4973550;28;20033;-68
2023/05/21 08:36:20;;;;;;;8.68;5.15;;;;;;;;;;4976422;28;20104;-68
2023/05/21 08:38:45;;;;;;;8.50;5.50;;;;;;;;;;4975537;28;20477;-69
2023/05/21 08:41:11;;;;;;;7.22;5.13;;;;;;;;;;4967081;28;20030;-67
2023/05/21 08:43:42;;;;;;;8.27;5.15;;;;;;;;;;4957950;28;20122;-69
2023/05/21 08:46:08;;;;;;;10.55;5.50;;;;;;;;;;4957389;28;20095;-68
2023/05/21 08:48:35;;;;;;;9.35;5.28;;;;;;;;;;4957313;28;20027;-68
2023/05/21 08:51:01;;;;;;;10.10;6.10;;;;;;;;;;4954647;28;20027;-67
2023/05/21 08:53:28;;;;;;;8.00;5.18;;;;;;;;;;4954950;28;20034;-68
2023/05/21 08:55:54;;;;;;;9.52;5.50;;;;;;;;;;5056718;28;20103;-68
2023/05/21 08:58:23;;;;;;;9.05;5.43;;;;;;;;;;5078427;28;20112;-67
2023/05/21 09:00:48;;;;;;;8.18;5.05;;;;;;;;;;5078125;28;20369;-68
2023/05/21 09:03:14;;;;;;;8.65;5.57;;;;;;;;;;5077988;28;20028;-67
2023/05/21 09:05:42;;;;;;;10.60;5.57;;;;;;;;;;5075161;28;20048;-67
2023/05/21 09:08:14;;;;;;;8.98;5.05;;;;;;;;;;5077104;28;20115;-68
2023/05/21 09:10:47;;;;;;;7.85;4.70;;;;;;;;;;5076690;28;20031;-69
2023/05/21 09:13:13;;;;;;;7.72;5.10;;;;;;;;;;5075536;28;20059;-68
2023/05/21 09:15:38;;;;;;;7.45;4.70;;;;;;;;;;5076268;28;20049;-68
2023/05/21 09:18:03;;;;;;;7.57;4.38;;;;;;;;;;5066504;28;20204;-67
2023/05/21 09:20:29;;;;;;;7.35;4.75;;;;;;;;;;5062197;28;20039;-67
2023/05/21 09:22:54;;;;;;;8.90;4.75;;;;;;;;;;5064093;28;20493;-68
2023/05/21 09:25:20;;;;;;;10.98;4.60;;;;;;;;;;5063549;28;20102;-68
2023/05/21 09:27:46;;;;;;;7.82;4.82;;;;;;;;;;5063737;28;20020;-67
2023/05/21 09:30:12;;;;;;;8.07;4.53;;;;;;;;;;5045633;28;20029;-67
2023/05/21 09:32:38;;;;;;;6.82;4.05;;;;;;;;;;5062760;28;20040;-68
2023/05/21 09:35:07;;;;;;;10.07;4.32;;;;;;;;;;5063897;28;20031;-68
2023/05/21 09:37:36;;;;;;;6.68;4.53;;;;;;;;;;5061425;28;20028;-68
2023/05/21 09:40:11;;;;;;;7.07;4.40;;;;;;;;;;5061434;28;20028;-68
2023/05/21 09:42:44;;;;;;;6.57;3.75;;;;;;;;;;5061825;28;20395;-68
2023/05/21 09:45:10;;;;;;;7.35;4.20;;;;;;;;;;5044629;28;20062;-69
2023/05/21 09:47:42;;;;;;;6.38;3.58;;;;;;;;;;4951621;28;20031;-67
2023/05/21 09:50:11;;;;;;;6.57;3.90;;;;;;;;;;4951767;28;20035;-73
2023/05/21 09:52:37;;;;;;;7.93;3.83;;;;;;;;;;4960122;28;20034;-68
2023/05/21 09:55:06;;;;;;;8.60;4.20;;;;;;;;;;5004961;28;20190;-68
2023/05/21 09:57:31;;;;;;;8.25;4.32;;;;;;;;;;5061607;28;20021;-68
2023/05/21 09:59:59;;;;;;;8.02;4.38;;;;;;;;;;5061623;28;20025;-67
2023/05/21 10:02:28;;;;;;;7.88;4.00;;;;;;;;;;5060904;28;20020;-68
2023/05/21 10:04:54;;;;;;;6.18;3.90;;;;;;;;;;5093701;28;20031;-69
2023/05/21 10:07:26;;;;;;;7.05;4.25;;;;;;;;;;5064581;28;20024;-67
2023/05/21 10:09:53;;;;;;;7.68;4.25;;;;;;;;;;5061564;28;20258;-68
2023/05/21 10:12:20;;;;;;;5.43;3.90;;;;;;;;;;5063264;28;20028;-69
2023/05/21 10:14:51;;;;;;;9.55;4.30;;;;;;;;;;5061566;28;20545;-69
2023/05/21 10:17:18;;;;;;;6.22;4.10;;;;;;;;;;5063980;28;20020;-68
2023/05/21 10:19:47;;;;;;;7.30;3.75;;;;;;;;;;5061878;28;20023;-68
2023/05/21 10:22:13;;;;;;;7.05;4.40;;;;;;;;;;5063115;28;20438;-69
2023/05/21 10:24:39;;;;;;;8.40;4.35;;;;;;;;;;5062948;28;20052;-68
2023/05/21 10:27:05;;;;;;;7.30;4.38;;;;;;;;;;5061545;28;20041;-69
2023/05/21 10:29:30;;;;;;;8.38;4.07;;;;;;;;;;5062080;28;20021;-68
2023/05/21 10:31:56;;;;;;;6.95;4.15;;;;;;;;;;5062355;28;20028;-68
2023/05/21 10:34:22;;;;;;;8.00;4.40;;;;;;;;;;5061069;28;20439;-69
2023/05/21 10:36:48;;;;;;;7.00;4.53;;;;;;;;;;5063800;28;20107;-68
2023/05/21 10:39:15;;;;;;;9.68;4.30;;;;;;;;;;5063013;28;20178;-68
2023/05/21 10:41:50;;;;;;;9.65;4.20;;;;;;;;;;5061948;28;20076;-69
2023/05/21 10:44:20;;;;;;;7.50;4.30;;;;;;;;;;5062838;28;20055;-69
2023/05/21 10:47:06;;;;;;;8.90;4.60;;;;;;;;;;5062865;28;20040;-69
2023/05/21 10:49:39;;;;;;;8.77;4.20;;;;;;;;;;5060655;28;20070;-68
2023/05/21 10:52:05;;;;;;;12.88;4.20;;;;;;;;;;5060174;28;20512;-69
2023/05/21 10:54:30;;;;;;;8.85;4.03;;;;;;;;;;5036777;28;20031;-68
2023/05/21 10:57:22;;;;;;;7.90;4.40;;;;;;;;;;4960969;28;20045;-71
2023/05/21 10:59:48;;;;;;;7.85;4.50;;;;;;;;;;4937355;28;20035;-70
2023/05/21 11:02:16;;;;;;;8.00;4.28;;;;;;;;;;4974498;28;20036;-69
2023/05/21 11:04:48;;;;;;;11.55;4.50;;;;;;;;;;4941785;28;20035;-68
2023/05/21 11:07:14;;;;;;;6.75;4.05;;;;;;;;;;4941668;28;20066;-70
2023/05/21 11:09:39;;;;;;;9.02;4.45;;;;;;;;;;4941009;28;20027;-69
2023/05/21 11:12:08;;;;;;;7.63;3.70;;;;;;;;;;4941145;28;20024;-69
2023/05/21 11:14:41;;;;;;;5.90;3.40;;;;;;;;;;4941676;28;20468;-69
2023/05/21 11:17:11;;;;;;;5.60;3.60;;;;;;;;;;4939328;28;20081;-69
2023/05/21 11:19:37;;;;;;;6.82;3.83;;;;;;;;;;4939210;28;20510;-68
2023/05/21 11:22:21;;;;;;;7.32;3.65;;;;;;;;;;4939419;28;20252;-69
2023/05/21 11:24:47;;;;;;;6.88;3.78;;;;;;;;;;4941296;28;20504;-68
2023/05/21 11:27:33;;;;;;;9.00;3.80;;;;;;;;;;4940831;28;20034;-69
2023/05/21 11:30:01;;;;;;;7.32;3.83;;;;;;;;;;4940635;28;20038;-70
2023/05/21 11:32:26;;;;;;;7.72;3.60;;;;;;;;;;4941455;28;20473;-68
2023/05/21 11:34:52;;;;;;;9.05;3.92;;;;;;;;;;4939984;28;20101;-68
2023/05/21 11:37:22;;;;;;;4.72;3.50;;;;;;;;;;4941320;28;20099;-69
2023/05/21 11:39:50;;;;;;;5.38;3.88;;;;;;;;;;4941155;28;20495;-67
2023/05/21 11:42:35;;;;;;;6.53;3.50;;;;;;;;;;4939456;28;20491;-69
2023/05/21 11:45:03;;;;;;;10.55;3.63;;;;;;;;;;4932878;28;20074;-69
2023/05/21 11:47:30;;;;;;;6.22;3.40;;;;;;;;;;4922939;28;20150;-68
2023/05/21 11:49:57;;;;;;;7.97;3.97;;;;;;;;;;4941054;28;20282;-68
2023/05/21 11:52:29;;;;;;;6.72;3.78;;;;;;;;;;4940585;28;20553;-69
2023/05/21 11:54:55;;;;;;;11.35;3.90;;;;;;;;;;4987991;28;20015;-72
2023/05/21 11:57:21;;;;;;;11.50;3.72;;;;;;;;;;5061772;28;20492;-68
2023/05/21 11:59:48;;;;;;;7.22;3.83;;;;;;;;;;5061332;28;20017;-68
2023/05/21 12:02:20;;;;;;;14.60;3.78;;;;;;;;;;5061616;28;20104;-69
2023/05/21 12:04:47;;;;;;;14.60;3.78;;;;;;;;;;5059833;28;20028;-69
2023/05/21 12:07:12;;;;;;;22.55;4.05;;;;;;;;;;5030853;28;20054;-69
2023/05/21 12:09:41;;;;;;;19.33;4.10;;;;;;;;;;4944915;28;20035;-69
2023/05/21 12:12:07;;;;;;;21.77;4.38;;;;;;;;;;4949158;28;20081;-68
2023/05/21 12:14:33;;;;;;;20.92;4.45;;;;;;;;;;4952250;28;20484;-70
2023/05/21 12:16:58;;;;;;;17.73;3.90;;;;;;;;;;4949009;28;20031;-68
2023/05/21 12:19:23;;;;;;;22.27;4.28;;;;;;;;;;4956574;28;20050;-68
2023/05/21 12:21:49;;;;;;;21.17;4.32;;;;;;;;;;4941248;28;20600;-70
2023/05/21 12:24:17;;;;;;;19.10;4.55;;;;;;;;;;4953854;28;20035;-69
2023/05/21 12:26:44;;;;;;;22.38;4.43;;;;;;;;;;4957080;28;20541;-69
2023/05/21 12:29:10;;;;;;;24.40;4.68;;;;;;;;;;4943678;28;20384;-69
2023/05/21 12:31:46;;;;;;;22.13;4.40;;;;;;;;;;4943821;28;20035;-69
2023/05/21 12:34:11;;;;;;;27.83;4.57;;;;;;;;;;4957312;28;20088;-69
2023/05/21 12:36:37;;;;;;;26.48;4.32;;;;;;;;;;4974819;28;20059;-70
2023/05/21 12:39:02;;;;;;;20.15;4.53;;;;;;;;;;4968161;28;20104;-70
2023/05/21 12:41:30;;;;;;;23.20;4.47;;;;;;;;;;4970850;28;20344;-70
2023/05/21 12:43:55;;;;;;;20.95;3.90;;;;;;;;;;4971243;28;20035;-69
2023/05/21 12:46:22;;;;;;;21.25;3.90;;;;;;;;;;4940831;28;20043;-68
2023/05/21 12:48:56;;;;;;;14.70;3.70;;;;;;;;;;4951782;28;20038;-69
2023/05/21 12:51:21;;;;;;;19.48;4.07;;;;;;;;;;4957356;28;20035;-70
2023/05/21 12:53:47;;;;;;;17.15;3.72;;;;;;;;;;4950458;28;20037;-70
2023/05/21 12:56:13;;;;;;;22.85;3.70;;;;;;;;;;4970764;28;20093;-69
2023/05/21 12:58:39;;;;;;;18.52;3.75;;;;;;;;;;4955703;28;20492;-68
2023/05/21 13:01:07;;;;;;;19.23;3.92;;;;;;;;;;4953670;28;20037;-68
2023/05/21 13:03:33;;;;;;;22.48;4.20;;;;;;;;;;4949729;28;20036;-68
2023/05/21 13:05:59;;;;;;;22.08;4.32;;;;;;;;;;4943014;28;20050;-68
2023/05/21 13:08:25;;;;;;;16.15;4.13;;;;;;;;;;4951878;28;20487;-70
2023/05/21 13:10:50;;;;;;;23.30;4.75;;;;;;;;;;4962843;28;20046;-70
2023/05/21 13:13:15;;;;;;;20.15;4.35;;;;;;;;;;4960006;28;20093;-69
2023/05/21 13:15:41;;;;;;;25.90;4.72;;;;;;;;;;4959466;28;20037;-72
2023/05/21 13:18:08;;;;;;;18.38;4.60;;;;;;;;;;4959627;28;20037;-72
2023/05/21 13:20:35;;;;;;;20.02;4.75;;;;;;;;;;4960611;28;20494;-70
2023/05/21 13:23:00;;;;;;;24.35;4.38;;;;;;;;;;4961654;28;20031;-70
2023/05/21 13:25:28;;;;;;;27.83;4.65;;;;;;;;;;4959568;28;20392;-70
2023/05/21 13:27:54;;;;;;;21.70;4.18;;;;;;;;;;4960787;28;20035;-69
2023/05/21 13:30:20;;;;;;;20.73;3.95;;;;;;;;;;4961351;28;20449;-70
2023/05/21 13:32:45;;;;;;;22.55;4.38;;;;;;;;;;4991315;28;20118;-70
2023/05/21 13:35:10;;;;;;;23.17;5.28;;;;;;;;;;4961216;28;20031;-69
2023/05/21 13:37:37;;;;;;;20.05;4.57;;;;;;;;;;4960789;28;20041;-71
2023/05/21 13:40:04;;;;;;;22.67;4.15;;;;;;;;;;4961558;28;20027;-71
2023/05/21 13:42:30;;;;;;;21.55;4.28;;;;;;;;;;4961097;28;20509;-72
2023/05/21 13:44:55;;;;;;;16.70;4.63;;;;;;;;;;4960548;28;20027;-69
2023/05/21 13:47:21;;;;;;;18.65;4.10;;;;;;;;;;4960115;28;20042;-70
2023/05/21 13:49:46;;;;;;;21.45;4.25;;;;;;;;;;4961795;28;20131;-70
2023/05/21 13:52:11;;;;;;;23.10;4.22;;;;;;;;;;4962360;28;20076;-70
2023/05/21 13:54:37;;;;;;;17.35;4.03;;;;;;;;;;4991640;28;20032;-70
2023/05/21 13:57:02;;;;;;;15.70;3.95;;;;;;;;;;5063693;28;20024;-68
2023/05/21 13:59:27;;;;;;;16.13;4.38;;;;;;;;;;5063347;28;20048;-71
2023/05/21 14:01:52;;;;;;;19.23;4.45;;;;;;;;;;5063659;28;20107;-70
2023/05/21 14:04:18;;;;;;;21.85;4.13;;;;;;;;;;5044979;28;20539;-70
2023/05/21 14:06:44;;;;;;;21.25;4.53;;;;;;;;;;5062870;28;20040;-70
2023/05/21 14:09:10;;;;;;;17.02;4.15;;;;;;;;;;5062315;28;20140;-70
2023/05/21 14:11:35;;;;;;;20.83;3.97;;;;;;;;;;5060836;28;20573;-71
2023/05/21 14:14:01;;;;;;;18.50;3.80;;;;;;;;;;5063809;28;20024;-70
2023/05/21 14:16:27;;;;;;;15.13;3.67;;;;;;;;;;5062785;28;20067;-69
2023/05/21 14:18:53;;;;;;;20.25;3.83;;;;;;;;;;5061675;28;20067;-69
2023/05/21 14:21:18;;;;;;;18.88;3.70;;;;;;;;;;5061053;28;20021;-69
2023/05/21 14:23:44;;;;;;;15.98;4.15;;;;;;;;;;5063325;28;20032;-70
2023/05/21 14:26:09;;;;;;;14.70;3.70;;;;;;;;;;5059966;28;20060;-70
2023/05/21 14:28:34;;;;;;;17.50;3.90;;;;;;;;;;5061571;28;20031;-70
2023/05/21 14:30:59;;;;;;;18.20;3.63;;;;;;;;;;5062454;28;20115;-69
2023/05/21 14:33:25;;;;;;;17.83;3.92;;;;;;;;;;5062984;28;20075;-70